Time;durP1;ratioP1;P1;durP2;ratioP2;P2;SDS_P1;SDS_P2;PMS_P1;PMS_P2;Temp;Humidity;BMP_temperature;BMP_pressure;BME280_temperature;BME280_humidity;BME280_pressure;Samples;Min_cycle;Max_cycle;Signal;HPM_P1;HPM_P2
2022/01/24 00:04:38;;;;;;;377.90;14.43;;;;;;;4.18;100.00;100142.94;10486177;28;20466;-52
2022/01/24 00:09:43;;;;;;;430.67;18.60;;;;;;;4.18;100.00;100141.13;10500564;28;20048;-58
2022/01/24 00:14:59;;;;;;;651.28;22.42;;;;;;;4.14;100.00;100145.75;10484666;28;20066;-50
2022/01/24 00:30:47;;;;;;;654.88;25.60;;;;;;;4.14;100.00;100136.91;10487823;28;20464;-51
2022/01/24 00:35:50;;;;;;;193.48;16.05;;;;;;;4.14;100.00;100134.25;10482551;28;20070;-50
2022/01/24 00:40:55;;;;;;;395.15;18.80;;;;;;;4.13;100.00;100120.03;10486526;28;20052;-51
2022/01/24 00:46:04;;;;;;;946.47;29.70;;;;;;;4.12;100.00;100112.94;10486595;28;20492;-51
2022/01/24 00:56:30;;;;;;;1325.70;29.80;;;;;;;4.06;100.00;100113.28;10484590;28;20048;-50
2022/01/24 01:01:33;;;;;;;609.05;19.98;;;;;;;4.08;100.00;100121.19;10485294;28;20047;-50
2022/01/24 01:06:38;;;;;;;857.90;21.15;;;;;;;4.11;100.00;100118.38;10480680;28;20048;-49
2022/01/24 01:22:24;;;;;;;1301.13;30.50;;;;;;;4.07;100.00;100099.00;10486266;28;20044;-57
2022/01/24 01:27:35;;;;;;;1128.82;26.33;;;;;;;4.09;100.00;100106.91;10486286;28;20050;-50
2022/01/24 01:32:52;;;;;;;819.45;20.77;;;;;;;4.08;100.00;100103.41;10484646;28;20511;-53
2022/01/24 01:38:22;;;;;;;1271.20;28.08;;;;;;;4.08;100.00;100105.19;10515476;28;20470;-50
2022/01/24 01:54:22;;;;;;;869.50;26.40;;;;;;;4.07;100.00;100090.13;10486241;28;20048;-50
2022/01/24 01:59:27;;;;;;;1229.65;29.20;;;;;;;4.05;100.00;100100.88;10481953;28;20072;-53
2022/01/24 02:04:30;;;;;;;452.80;18.48;;;;;;;4.08;100.00;100099.84;10517249;28;20057;-52
2022/01/24 02:09:34;;;;;;;763.20;21.85;;;;;;;4.07;100.00;100088.34;10482652;28;20046;-50
2022/01/24 02:14:45;;;;;;;793.17;23.40;;;;;;;4.07;100.00;100087.47;10484370;28;20051;-50
2022/01/24 02:20:07;;;;;;;1029.43;27.27;;;;;;;4.06;100.00;100089.28;10481134;28;20115;-52
2022/01/24 02:25:23;;;;;;;1045.10;29.20;;;;;;;4.06;100.00;100085.75;10484993;28;20124;-55
2022/01/24 02:30:48;;;;;;;820.72;27.75;;;;;;;4.05;100.00;100084.88;10482781;28;20124;-52
2022/01/24 02:35:52;;;;;;;792.72;28.55;;;;;;;4.03;100.00;100086.75;10484618;28;20053;-55
2022/01/24 02:53:10;;;;;;;62.65;17.23;;;;;;;4.03;100.00;100070.75;10489666;28;20044;-51
2022/01/24 02:58:16;;;;;;;58.95;16.17;;;;;;;3.99;100.00;100078.06;10489438;28;20398;-50
2022/01/24 03:03:20;;;;;;;108.95;18.33;;;;;;;4.00;100.00;100073.56;10490610;28;20413;-50
2022/01/24 03:08:23;;;;;;;664.17;28.17;;;;;;;3.99;100.00;100085.22;10489015;28;20087;-51
2022/01/24 03:13:33;;;;;;;923.90;32.35;;;;;;;3.99;100.00;100078.06;10485954;28;20041;-57
2022/01/24 03:18:36;;;;;;;297.58;22.15;;;;;;;3.96;100.00;100064.88;10487724;28;20127;-52
2022/01/24 03:23:39;;;;;;;445.77;24.63;;;;;;;3.95;100.00;100068.47;10489914;28;20044;-54
2022/01/24 03:28:44;;;;;;;674.63;28.02;;;;;;;3.95;100.00;100065.81;10488123;28;20048;-50
2022/01/24 03:33:47;;;;;;;1188.18;33.97;;;;;;;3.95;100.00;100062.28;10491370;28;20044;-56
2022/01/24 03:38:50;;;;;;;1249.32;35.63;;;;;;;3.93;100.00;100067.72;10491630;28;20106;-59
2022/01/24 03:44:01;;;;;;;838.35;25.92;;;;;;;3.91;100.00;100061.59;10490255;28;20044;-51
2022/01/24 03:49:20;;;;;;;811.88;24.77;;;;;;;3.92;100.00;100068.66;10484812;28;20097;-53
2022/01/24 03:54:23;;;;;;;828.42;25.98;;;;;;;3.89;100.00;100071.47;10488157;28;20064;-52
2022/01/24 03:59:29;;;;;;;987.15;27.33;;;;;;;3.88;100.00;100067.06;10490086;28;20047;-49
2022/01/24 04:04:32;;;;;;;924.83;27.88;;;;;;;3.88;100.00;100075.06;10487677;28;20064;-52
2022/01/24 04:09:38;;;;;;;1236.13;33.90;;;;;;;3.85;100.00;100080.56;10489206;28;20047;-52
2022/01/24 04:15:06;;;;;;;1486.70;44.67;;;;;;;3.85;100.00;100085.88;10485055;28;20051;-55
2022/01/24 04:25:32;;;;;;;1316.00;35.80;;;;;;;3.83;100.00;100079.75;10484765;28;20074;-59
2022/01/24 04:30:37;;;;;;;595.78;26.05;;;;;;;3.85;100.00;100089.44;10486992;28;20143;-54
2022/01/24 04:35:40;;;;;;;794.08;29.42;;;;;;;3.87;100.00;100080.50;10487905;28;20119;-57
2022/01/24 04:40:44;;;;;;;1037.78;32.65;;;;;;;3.87;100.00;100065.34;10487227;28;20051;-51
2022/01/24 04:46:03;;;;;;;1026.68;34.35;;;;;;;3.87;100.00;100070.69;10487655;28;20128;-53
2022/01/24 04:51:14;;;;;;;1125.22;34.10;;;;;;;3.87;100.00;100072.50;10484209;28;20067;-51
2022/01/24 04:56:17;;;;;;;1265.50;36.10;;;;;;;3.82;100.00;100067.41;10486655;28;20050;-51
2022/01/24 05:01:22;;;;;;;1204.93;34.20;;;;;;;3.79;100.00;100073.72;10486264;28;20040;-52
2022/01/24 05:06:26;;;;;;;1499.38;37.15;;;;;;;3.79;100.00;100076.41;10486489;28;20416;-53
2022/01/24 05:11:38;;;;;;;1341.50;36.42;;;;;;;3.78;100.00;100069.34;10495219;28;20040;-56
2022/01/24 05:27:39;;;;;;;1412.72;40.45;;;;;;;3.81;100.00;100076.34;10397470;28;20053;-50
2022/01/24 05:32:43;;;;;;;1499.80;42.00;;;;;;;3.79;100.00;100080.88;10461272;28;20098;-51
2022/01/24 05:37:47;;;;;;;1450.95;42.38;;;;;;;3.80;100.00;100082.59;10484545;28;20576;-50
2022/01/24 05:42:50;;;;;;;1766.43;48.22;;;;;;;3.77;100.00;100080.09;10485787;28;20123;-50
2022/01/24 05:47:54;;;;;;;1653.28;47.67;;;;;;;3.76;100.00;100083.69;10490735;28;20119;-49
2022/01/24 05:52:57;;;;;;;1716.38;45.22;;;;;;;3.77;100.00;100096.94;10482375;28;20079;-49
2022/01/24 05:58:00;;;;;;;1709.97;46.40;;;;;;;3.76;100.00;100099.69;10484155;28;20071;-53
2022/01/24 06:03:05;;;;;;;1646.60;46.63;;;;;;;3.78;100.00;100111.13;10484439;28;20080;-50
2022/01/24 06:08:08;;;;;;;1665.72;45.53;;;;;;;3.77;100.00;100102.25;10419890;23;20072;-55
2022/01/24 06:13:11;;;;;;;1826.03;47.13;;;;;;;3.78;100.00;100108.47;10406855;28;20051;-62
2022/01/24 06:18:16;;;;;;;1652.88;45.00;;;;;;;3.77;100.00;100098.75;10405216;28;20144;-55
2022/01/24 06:23:20;;;;;;;1491.13;43.40;;;;;;;3.78;100.00;100108.47;10403193;28;20046;-54
2022/01/24 06:28:23;;;;;;;1138.40;38.38;;;;;;;3.80;100.00;100099.44;10375483;28;20514;-56
2022/01/24 06:33:27;;;;;;;954.83;36.70;;;;;;;3.85;100.00;100107.22;10372129;28;20080;-56
2022/01/24 06:38:30;;;;;;;202.23;25.80;;;;;;;3.89;100.00;100119.47;10370848;28;20084;-55
2022/01/24 06:43:34;;;;;;;487.45;28.40;;;;;;;3.93;100.00;100117.50;10391392;28;20065;-56
2022/01/24 06:48:38;;;;;;;715.35;31.58;;;;;;;3.94;100.00;100114.75;10377739;28;20049;-57
2022/01/24 06:53:55;;;;;;;849.05;35.45;;;;;;;3.89;100.00;100108.81;10375284;28;20049;-55
2022/01/24 06:58:58;;;;;;;148.07;24.23;;;;;;;3.93;100.00;100123.72;10378265;28;20069;-57
2022/01/24 07:04:05;;;;;;;437.13;27.35;;;;;;;3.92;100.00;100124.66;10371046;28;20422;-56
2022/01/24 07:09:08;;;;;;;938.88;34.22;;;;;;;3.92;100.00;100130.00;10385608;28;20136;-54
2022/01/24 07:14:13;;;;;;;156.50;20.90;;;;;;;3.87;100.00;100131.16;10379395;28;20056;-55
2022/01/24 07:19:17;;;;;;;1214.30;39.08;;;;;;;3.92;100.00;100138.00;10385150;28;20133;-56
2022/01/24 07:24:20;;;;;;;1401.40;42.80;;;;;;;3.89;100.00;100142.59;10386841;28;20046;-54
2022/01/24 07:29:24;;;;;;;1668.03;47.35;;;;;;;3.91;100.00;100138.03;10388163;28;20042;-54
2022/01/24 07:34:29;;;;;;;1782.97;48.42;;;;;;;3.87;100.00;100133.81;10375273;28;20176;-57
2022/01/24 07:39:32;;;;;;;1853.75;50.08;;;;;;;3.86;100.00;100138.28;10372564;28;20558;-57
2022/01/24 07:44:41;;;;;;;1648.57;47.47;;;;;;;3.88;100.00;100136.41;10383591;28;20045;-58
2022/01/24 07:49:45;;;;;;;1395.72;45.30;;;;;;;3.90;100.00;100139.88;10376078;28;20136;-57
2022/01/24 07:54:48;;;;;;;1334.05;41.75;;;;;;;3.93;100.00;100153.06;10380012;28;20074;-59
2022/01/24 07:59:52;;;;;;;1188.10;39.45;;;;;;;3.95;100.00;100147.63;10382958;28;20580;-56
2022/01/24 08:04:57;;;;;;;1860.78;52.80;;;;;;;3.95;100.00;100145.81;10386857;28;20532;-60
2022/01/24 08:10:00;;;;;;;1736.95;53.78;;;;;;;3.96;100.00;100150.22;10386240;28;20080;-56
2022/01/24 08:15:04;;;;;;;1034.22;38.75;;;;;;;4.00;100.00;100156.25;10390254;28;20477;-55
2022/01/24 08:20:09;;;;;;;1285.85;44.63;;;;;;;4.00;100.00;100151.78;10376145;28;20450;-57
2022/01/24 08:25:32;;;;;;;1428.85;46.40;;;;;;;4.03;100.00;100153.44;10373164;28;20049;-58
2022/01/24 08:30:36;;;;;;;1357.28;44.25;;;;;;;4.05;100.00;100164.06;10392892;28;20080;-55
2022/01/24 08:35:40;;;;;;;1100.95;40.03;;;;;;;4.06;100.00;100150.63;10395481;28;20048;-57
2022/01/24 08:40:46;;;;;;;550.63;31.85;;;;;;;4.11;100.00;100155.72;10400503;28;20136;-55
2022/01/24 08:45:52;;;;;;;687.83;32.78;;;;;;;4.15;100.00;100159.97;10400873;28;20113;-56
2022/01/24 08:50:59;;;;;;;358.13;27.63;;;;;;;4.20;100.00;100157.91;10395358;28;20521;-54
2022/01/24 08:56:04;;;;;;;422.20;28.13;;;;;;;4.26;100.00;100154.06;10385480;28;20040;-57
2022/01/24 09:01:07;;;;;;;105.20;23.52;;;;;;;4.32;100.00;100156.44;10394248;28;20050;-57
2022/01/24 09:06:13;;;;;;;401.83;27.40;;;;;;;4.37;100.00;100153.53;10384001;28;20057;-54
2022/01/24 09:11:16;;;;;;;71.70;22.83;;;;;;;4.43;100.00;100159.44;10387929;28;20048;-57
2022/01/24 09:16:20;;;;;;;67.60;23.20;;;;;;;4.50;100.00;100143.97;10391083;28;20042;-57
2022/01/24 09:21:27;;;;;;;59.28;21.00;;;;;;;4.58;100.00;100155.09;10383360;28;20049;-57
2022/01/24 09:26:30;;;;;;;54.22;19.92;;;;;;;4.63;100.00;100149.50;10392152;28;20033;-54
2022/01/24 09:31:33;;;;;;;62.85;18.35;;;;;;;4.66;100.00;100153.81;10385489;28;20726;-56
2022/01/24 09:36:39;;;;;;;46.42;18.48;;;;;;;4.74;100.00;100147.13;10390339;28;20045;-57
2022/01/24 09:41:42;;;;;;;45.47;21.10;;;;;;;4.81;100.00;100158.34;10379059;28;20520;-59
2022/01/24 09:47:05;;;;;;;35.13;18.10;;;;;;;4.86;100.00;100156.31;10386750;28;20049;-54
2022/01/24 09:52:10;;;;;;;28.85;15.25;;;;;;;4.92;100.00;100153.31;10387367;28;20050;-58
2022/01/24 09:57:13;;;;;;;24.65;13.95;;;;;;;4.97;100.00;100158.41;10392947;28;20124;-61
2022/01/24 10:02:17;;;;;;;32.25;17.73;;;;;;;5.04;100.00;100148.25;10394674;28;20073;-59
2022/01/24 10:07:23;;;;;;;23.33;13.68;;;;;;;5.10;100.00;100153.28;10404901;28;20046;-60
2022/01/24 10:16:24;;;;;;;23.65;13.48;;;;;;;5.18;100.00;100166.19;10386656;28;20379;-57
2022/01/24 10:17:53;;;;;;;23.20;13.93;;;;;;;5.23;100.00;100154.28;10390781;28;20054;-58
2022/01/24 10:23:12;;;;;;;22.50;14.30;;;;;;;5.30;100.00;100148.63;10398626;28;20123;-56
2022/01/24 10:28:24;;;;;;;25.55;15.27;;;;;;;5.35;100.00;100141.22;10392228;28;20456;-60
2022/01/24 10:33:51;;;;;;;20.88;13.30;;;;;;;5.42;100.00;100126.56;10394709;28;20050;-56
2022/01/24 10:39:18;;;;;;;20.08;12.60;;;;;;;5.50;100.00;100127.00;10389231;28;20509;-57
2022/01/24 10:44:30;;;;;;;14.13;8.68;;;;;;;5.57;100.00;100124.84;10397500;28;20056;-56
2022/01/24 10:49:43;;;;;;;9.95;7.05;;;;;;;5.62;100.00;100127.25;10400364;28;20042;-58
2022/01/24 10:54:48;;;;;;;9.27;6.70;;;;;;;5.66;100.00;100118.09;10393348;28;20158;-57
2022/01/24 11:00:00;;;;;;;7.50;5.40;;;;;;;5.68;100.00;100105.50;10381790;28;20418;-57
2022/01/24 11:05:15;;;;;;;8.27;5.80;;;;;;;5.73;100.00;100108.75;10404412;28;20745;-58
2022/01/24 11:10:28;;;;;;;7.77;6.00;;;;;;;5.74;100.00;100101.63;10384950;28;20132;-55
2022/01/24 11:15:31;;;;;;;6.40;5.03;;;;;;;5.76;100.00;100094.38;10398166;28;20465;-58
2022/01/24 11:20:40;;;;;;;6.80;5.45;;;;;;;5.82;100.00;100076.13;10386569;28;20057;-56
2022/01/24 11:25:47;;;;;;;6.82;3.90;;;;;;;5.73;100.00;100071.31;10401909;28;20631;-58
2022/01/24 11:30:57;;;;;;;6.72;5.30;;;;;;;5.77;100.00;100078.22;10388798;28;20145;-56
2022/01/24 11:36:02;;;;;;;5.40;4.22;;;;;;;5.78;100.00;100071.06;10389475;28;20087;-56
2022/01/24 11:41:20;;;;;;;11.50;8.02;;;;;;;5.77;100.00;100067.53;10382446;28;20056;-58
2022/01/24 11:46:35;;;;;;;12.65;8.50;;;;;;;5.78;100.00;100068.38;10401698;28;20037;-58
2022/01/24 11:51:39;;;;;;;13.52;8.73;;;;;;;5.76;100.00;100067.63;10387506;28;20061;-57
2022/01/24 11:56:44;;;;;;;12.70;9.05;;;;;;;5.77;100.00;100067.53;10387341;28;20286;-56
2022/01/24 12:01:54;;;;;;;14.10;10.27;;;;;;;5.72;100.00;100061.56;10392162;28;20046;-59
2022/01/24 12:07:16;;;;;;;15.07;10.65;;;;;;;5.67;100.00;100069.03;10366731;23;20081;-55
2022/01/24 12:12:47;;;;;;;14.95;10.63;;;;;;;5.60;100.00;100056.94;10323339;28;20081;-59
2022/01/24 12:17:57;;;;;;;17.50;10.50;;;;;;;5.53;100.00;100059.97;10331620;28;20073;-59
2022/01/24 12:23:31;;;;;;;15.10;10.75;;;;;;;5.55;100.00;100058.09;10316857;28;20058;-59
2022/01/24 12:28:52;;;;;;;16.92;11.45;;;;;;;5.58;100.00;100050.84;10345800;28;20074;-61
2022/01/24 12:34:00;;;;;;;;;;;;;;;5.50;100.00;100051.28;10330218;28;20038;-59
2022/01/24 12:39:09;;;;;;;13.75;9.68;;;;;;;5.51;100.00;100045.00;10327215;28;21052;-55
2022/01/24 12:49:34;;;;;;;13.18;10.05;;;;;;;5.44;100.00;100043.59;10336426;28;20097;-59
2022/01/24 12:54:40;;;;;;;12.88;10.20;;;;;;;5.44;100.00;100036.47;10355401;28;20058;-57
2022/01/24 12:59:55;;;;;;;11.23;8.50;;;;;;;5.30;100.00;100037.22;10358581;28;20045;-57
2022/01/24 13:05:04;;;;;;;15.13;10.55;;;;;;;5.38;100.00;100036.78;10356781;28;20560;-56
2022/01/24 13:10:12;;;;;;;14.82;10.32;;;;;;;5.37;100.00;100032.41;10360014;28;20046;-56
2022/01/24 13:15:27;;;;;;;15.50;10.95;;;;;;;5.38;100.00;100028.78;10355137;28;20045;-61
2022/01/24 13:25:52;;;;;;;14.15;10.10;;;;;;;5.40;100.00;100027.75;10347422;28;20053;-59
2022/01/24 13:31:00;;;;;;;12.07;9.68;;;;;;;5.42;100.00;100034.81;10349354;28;20056;-56
2022/01/24 13:36:08;;;;;;;12.75;9.75;;;;;;;5.44;100.00;100033.78;10348601;28;20065;-55
2022/01/24 13:41:13;;;;;;;15.02;10.45;;;;;;;5.43;100.00;100025.84;10345595;28;20129;-56
2022/01/24 13:46:19;;;;;;;17.45;11.23;;;;;;;5.40;100.00;100019.75;10349469;28;20384;-55
2022/01/24 13:51:26;;;;;;;15.88;11.18;;;;;;;5.33;100.00;100026.38;10344802;28;20121;-59
2022/01/24 13:56:32;;;;;;;16.15;11.52;;;;;;;5.31;100.00;100024.75;10327380;28;20046;-56
2022/01/24 14:01:39;;;;;;;18.73;12.38;;;;;;;5.28;100.00;100028.47;10339875;28;20050;-58
2022/01/24 14:06:42;;;;;;;20.27;14.00;;;;;;;5.22;100.00;100029.69;10342423;28;20070;-59
2022/01/24 14:11:48;;;;;;;24.17;15.18;;;;;;;5.28;100.00;100033.81;10322792;28;20097;-58
2022/01/24 14:17:01;;;;;;;20.38;13.32;;;;;;;5.28;100.00;100032.94;10332911;28;20056;-61
2022/01/24 14:22:07;;;;;;;19.63;13.43;;;;;;;5.29;100.00;100026.63;10342052;28;20123;-60
2022/01/24 14:27:11;;;;;;;17.95;12.32;;;;;;;5.27;100.00;100020.53;10337421;28;20129;-52
2022/01/24 14:32:15;;;;;;;14.38;11.00;;;;;;;5.16;100.00;100013.97;10333649;28;20125;-52
2022/01/24 14:37:18;;;;;;;14.35;10.52;;;;;;;5.17;100.00;100018.38;10343808;28;20133;-53
2022/01/24 14:42:43;;;;;;;14.85;10.50;;;;;;;5.16;100.00;100013.97;10335119;28;20414;-57
2022/01/24 14:47:48;;;;;;;14.55;10.77;;;;;;;5.16;100.00;100019.31;10339895;28;20050;-55
2022/01/24 14:52:51;;;;;;;15.07;10.75;;;;;;;5.16;100.00;100013.97;10329821;28;20462;-58
2022/01/24 14:57:54;;;;;;;11.98;9.25;;;;;;;5.11;100.00;100023.19;10348101;28;20121;-52
2022/01/24 15:02:59;;;;;;;15.13;9.75;;;;;;;5.11;100.00;100021.41;10353568;28;20042;-59
2022/01/24 15:08:02;;;;;;;11.93;9.05;;;;;;;5.09;100.00;100020.63;10356930;28;20038;-55
2022/01/24 15:13:09;;;;;;;12.20;9.23;;;;;;;5.11;100.00;100016.06;10337122;28;20137;-56
2022/01/24 15:28:55;;;;;;;13.10;10.43;;;;;;;5.12;100.00;100028.44;10343081;28;20503;-57
2022/01/24 15:34:00;;;;;;;13.27;10.48;;;;;;;5.13;100.00;100029.31;10343500;28;20075;-55
2022/01/24 15:39:06;;;;;;;14.23;11.20;;;;;;;5.11;100.00;100025.88;10339711;28;20120;-52
2022/01/24 15:44:32;;;;;;;16.20;11.18;;;;;;;5.11;100.00;100025.88;10338004;28;20057;-54
2022/01/24 15:49:33;;;;;;;20.13;14.93;;;;;;;5.10;100.00;100022.34;10343618;28;20073;-51
2022/01/24 15:54:36;;;;;;;18.48;14.05;;;;;;;5.11;100.00;100015.19;10330316;28;20072;-53
2022/01/24 15:59:40;;;;;;;18.77;14.80;;;;;;;5.07;100.00;100009.16;10339426;28;20105;-53
2022/01/24 16:04:44;;;;;;;19.42;13.38;;;;;;;5.06;100.00;100008.28;10338720;28;20049;-60
2022/01/24 16:09:48;;;;;;;20.23;14.20;;;;;;;5.05;100.00;100013.72;10336510;28;20051;-53
2022/01/24 16:14:51;;;;;;;17.70;12.48;;;;;;;5.01;100.00;100006.81;10339326;28;20054;-61
2022/01/24 16:19:56;;;;;;;11.50;9.35;;;;;;;4.96;100.00;100000.91;10329265;28;20038;-52
2022/01/24 16:30:20;;;;;;;11.93;10.02;;;;;;;4.83;100.00;99998.91;10328994;28;20054;-52
2022/01/24 16:35:26;;;;;;;10.15;8.40;;;;;;;4.80;100.00;99985.72;10339015;28;20050;-55
2022/01/24 16:40:37;;;;;;;10.70;8.50;;;;;;;4.75;100.00;99975.31;10323647;28;20552;-57
2022/01/24 16:51:04;;;;;;;6.72;6.10;;;;;;;4.66;100.00;99988.28;10339002;28;20062;-52
2022/01/24 16:56:08;;;;;;;6.60;5.60;;;;;;;4.61;100.00;99986.75;10334989;28;20153;-56
2022/01/24 17:01:12;;;;;;;8.50;5.38;;;;;;;4.62;100.00;99990.28;10350503;28;20046;-53
2022/01/24 17:06:16;;;;;;;5.60;5.10;;;;;;;4.57;100.00;99987.84;10349850;28;20049;-52
2022/01/24 17:11:21;;;;;;;5.63;4.38;;;;;;;4.51;100.00;99993.56;10345180;28;20137;-52
2022/01/24 17:16:26;;;;;;;5.22;4.80;;;;;;;4.46;100.00;99993.81;10336428;28;20048;-55
2022/01/24 17:21:31;;;;;;;4.90;4.28;;;;;;;4.41;100.00;100000.34;10322434;28;20060;-51
2022/01/24 17:26:54;;;;;;;5.60;5.07;;;;;;;4.37;100.00;100001.44;10334281;28;20089;-52
2022/01/24 17:31:57;;;;;;;6.00;5.45;;;;;;;4.35;100.00;100003.31;10334476;28;20764;-52
2022/01/24 17:37:05;;;;;;;7.13;5.85;;;;;;;4.34;100.00;100005.13;10337673;28;20117;-58
2022/01/24 17:42:09;;;;;;;6.97;6.28;;;;;;;4.33;100.00;100019.41;10334940;28;20042;-58
2022/01/24 17:47:12;;;;;;;7.70;6.95;;;;;;;4.28;100.00;100019.66;10337550;28;20054;-57
2022/01/24 17:52:18;;;;;;;7.32;6.35;;;;;;;4.22;100.00;100019.13;10335992;28;20057;-53
2022/01/24 17:57:21;;;;;;;7.03;6.32;;;;;;;4.21;100.00;100017.41;10329968;28;20497;-56
2022/01/24 18:02:25;;;;;;;7.82;7.03;;;;;;;4.20;100.00;100005.84;10330775;28;20046;-56
2022/01/24 18:07:29;;;;;;;8.27;7.47;;;;;;;4.19;100.00;100012.13;10295546;28;20050;-53
2022/01/24 18:12:37;;;;;;;9.10;8.13;;;;;;;4.16;100.00;100001.66;10306876;28;20050;-56
2022/01/24 18:17:54;;;;;;;8.32;7.53;;;;;;;4.13;100.00;100007.97;10294426;28;20050;-59
2022/01/24 18:22:59;;;;;;;9.00;7.60;;;;;;;4.12;100.00;100011.59;10297131;28;20133;-61
2022/01/24 18:28:03;;;;;;;16.50;14.70;;;;;;;4.14;100.00;100016.88;10300058;28;20354;-60
2022/01/24 18:33:08;;;;;;;12.32;11.10;;;;;;;4.11;100.00;100020.56;10284521;28;20057;-61
2022/01/24 18:38:15;;;;;;;11.32;10.23;;;;;;;4.14;100.00;100017.72;10305656;28;20062;-59
2022/01/24 18:43:21;;;;;;;8.43;7.63;;;;;;;4.13;100.00;100036.47;10297901;28;20447;-59
2022/01/24 18:48:25;;;;;;;10.63;9.63;;;;;;;4.14;100.00;100033.72;10302746;28;20120;-57
2022/01/24 18:53:30;;;;;;;5.85;5.05;;;;;;;4.11;100.00;100019.69;10288402;28;20125;-59
2022/01/24 18:58:34;;;;;;;5.22;4.72;;;;;;;4.12;100.00;100018.75;10290658;28;20042;-60
2022/01/24 19:03:39;;;;;;;4.82;4.38;;;;;;;4.06;100.00;100019.94;10285284;28;20055;-64
2022/01/24 19:08:44;;;;;;;5.55;5.15;;;;;;;4.06;100.00;100014.59;10328488;28;20042;-55
2022/01/24 19:13:47;;;;;;;7.47;6.20;;;;;;;4.05;100.00;100022.69;10327873;28;20514;-54
2022/01/24 19:18:58;;;;;;;8.80;8.00;;;;;;;4.07;100.00;100026.13;10306598;28;20141;-54
2022/01/24 19:24:03;;;;;;;9.20;7.65;;;;;;;4.05;100.00;100028.03;10335774;28;20050;-61
2022/01/24 19:29:09;;;;;;;8.30;7.50;;;;;;;3.99;100.00;100022.06;10340385;28;20120;-56
2022/01/24 19:34:12;;;;;;;8.50;7.60;;;;;;;3.97;100.00;100026.59;10327898;28;20498;-62
2022/01/24 19:39:18;;;;;;;9.15;8.30;;;;;;;3.94;100.00;100018.75;10324926;28;20129;-62
2022/01/24 19:44:24;;;;;;;8.98;8.07;;;;;;;3.97;100.00;100020.41;10323373;28;20046;-55
2022/01/24 19:49:27;;;;;;;8.88;8.07;;;;;;;3.92;100.00;100020.66;10329311;28;20047;-60
2022/01/24 19:54:34;;;;;;;9.30;8.40;;;;;;;3.90;100.00;100022.53;10331121;28;20125;-56
2022/01/24 19:59:42;;;;;;;8.63;7.82;;;;;;;3.89;100.00;100030.59;10335166;28;20130;-57
2022/01/24 20:04:46;;;;;;;6.38;5.78;;;;;;;3.87;100.00;100028.00;10337118;28;20625;-58
2022/01/24 20:09:51;;;;;;;4.70;4.30;;;;;;;3.83;100.00;100021.09;10348194;28;20072;-55
2022/01/24 20:14:55;;;;;;;7.82;7.13;;;;;;;3.88;100.00;100019.06;10344432;28;20050;-55
2022/01/24 20:19:58;;;;;;;9.32;8.52;;;;;;;3.86;100.00;100020.97;10316519;28;20053;-56
2022/01/24 20:25:05;;;;;;;4.20;3.85;;;;;;;3.80;100.00;100015.94;10339897;28;20557;-58
2022/01/24 20:30:10;;;;;;;10.82;9.82;;;;;;;3.82;100.00;100014.94;10347617;28;20580;-56
2022/01/24 20:35:14;;;;;;;13.18;11.88;;;;;;;3.81;100.00;100017.69;10343537;28;20038;-59
2022/01/24 20:40:20;;;;;;;9.65;8.85;;;;;;;3.79;100.00;100008.91;10339616;28;20109;-56
2022/01/24 20:45:24;;;;;;;11.60;10.50;;;;;;;3.72;100.00;100003.00;10328092;28;20034;-58
2022/01/24 20:50:31;;;;;;;10.45;9.52;;;;;;;3.69;100.00;100012.03;10332228;28;20034;-54
2022/01/24 20:55:36;;;;;;;10.63;9.63;;;;;;;3.69;100.00;100014.69;10325504;28;20128;-56
2022/01/24 21:00:39;;;;;;;11.02;10.02;;;;;;;3.69;100.00;100013.81;10328449;28;20133;-55
2022/01/24 21:05:43;;;;;;;10.60;9.52;;;;;;;3.66;100.00;100014.84;10315760;28;20058;-55
2022/01/24 21:10:49;;;;;;;10.88;9.70;;;;;;;3.61;100.00;100016.88;10332892;28;20049;-55
2022/01/24 21:15:53;;;;;;;12.77;11.50;;;;;;;3.59;100.00;100010.75;10331782;28;20170;-58
2022/01/24 21:20:57;;;;;;;11.18;10.13;;;;;;;3.60;100.00;100015.16;10331551;28;20049;-58
2022/01/24 21:26:04;;;;;;;10.60;9.52;;;;;;;3.56;100.00;100013.59;10332900;28;20046;-57
2022/01/24 21:31:09;;;;;;;10.70;9.68;;;;;;;3.52;100.00;100017.34;10311510;28;20046;-53
2022/01/24 21:36:14;;;;;;;11.77;10.57;;;;;;;3.54;100.00;100018.13;10325427;28;20052;-56
2022/01/24 21:41:39;;;;;;;12.45;11.15;;;;;;;3.50;100.00;100017.44;10334391;28;20499;-55
2022/01/24 21:46:45;;;;;;;11.63;10.45;;;;;;;3.51;100.00;100023.59;10316498;28;20104;-55
2022/01/24 21:51:49;;;;;;;8.90;8.07;;;;;;;3.51;100.00;100015.63;10316301;28;20438;-57
2022/01/24 21:56:54;;;;;;;9.95;8.93;;;;;;;3.47;100.00;100030.91;10334311;28;20133;-59
2022/01/24 22:01:58;;;;;;;9.80;8.90;;;;;;;3.49;100.00;100028.16;10340617;28;20050;-57
2022/01/24 22:07:04;;;;;;;9.48;8.52;;;;;;;3.48;100.00;100026.41;10331451;28;20057;-57
2022/01/24 22:12:10;;;;;;;8.65;7.85;;;;;;;3.46;100.00;100023.84;10328030;28;20499;-56
2022/01/24 22:17:13;;;;;;;9.45;8.55;;;;;;;3.47;100.00;100020.25;10317705;28;20046;-56
2022/01/24 22:27:38;;;;;;;9.63;8.73;;;;;;;3.45;100.00;100016.78;10350474;28;20537;-59
2022/01/24 22:32:42;;;;;;;9.05;8.15;;;;;;;3.42;100.00;100010.75;10347655;28;20140;-58
2022/01/24 22:37:45;;;;;;;8.77;7.88;;;;;;;3.44;100.00;100003.56;10347072;28;20113;-61
2022/01/24 22:42:49;;;;;;;8.65;7.85;;;;;;;3.43;100.00;100012.47;10342759;28;20066;-57
2022/01/24 22:47:52;;;;;;;8.10;7.40;;;;;;;3.43;100.00;100016.00;10345336;28;20367;-60
2022/01/24 22:52:55;;;;;;;8.20;7.47;;;;;;;3.43;100.00;100008.00;10342671;28;20034;-56
2022/01/24 22:58:00;;;;;;;8.57;7.78;;;;;;;3.39;100.00;100011.78;10344837;28;20072;-56
2022/01/24 23:03:05;;;;;;;9.15;8.30;;;;;;;3.38;100.00;100007.38;10328594;28;20054;-60
2022/01/24 23:08:09;;;;;;;10.07;9.18;;;;;;;3.35;100.00;99999.53;10343490;28;20133;-53
2022/01/24 23:13:24;;;;;;;9.60;8.73;;;;;;;3.30;100.00;100001.56;10345467;28;20129;-59
2022/01/24 23:19:02;;;;;;;10.20;9.30;;;;;;;3.32;100.00;99994.34;10333234;28;20057;-60
2022/01/24 23:23:56;;;;;;;10.05;9.05;;;;;;;3.31;100.00;99998.81;10343064;28;20062;-60
2022/01/24 23:29:07;;;;;;;10.15;9.15;;;;;;;3.32;100.00;100005.88;10342755;28;20042;-58
2022/01/24 23:34:29;;;;;;;11.07;9.98;;;;;;;3.27;100.00;99999.06;10345804;28;20696;-56
2022/01/24 23:39:32;;;;;;;11.13;10.10;;;;;;;3.27;100.00;100015.03;10338781;28;20049;-57
2022/01/24 23:44:37;;;;;;;10.70;9.70;;;;;;;3.26;100.00;100003.50;10333318;28;20137;-57
2022/01/24 23:49:40;;;;;;;10.15;9.25;;;;;;;3.23;100.00;100004.53;10332592;28;20050;-56
2022/01/24 23:54:43;;;;;;;10.32;9.38;;;;;;;3.21;100.00;100008.22;10337237;28;20144;-56
